Latest Weather Observations for Coolangatta

IDQ60901

Issued at 1:01 pm EST Sunday 29 March 2015 (issued every 10 minutes, with the page automatically refreshed every 10 minutes)

About weather observations | Map of Brisbane area stations | Latest observations for Brisbane area | Other Formats
Station Details ID: 040717 Name: COOLANGATTA Lat: -28.17 Lon: 153.51 Height: 4.0 m
Data from the previous 72 hours. | See also: Recent months at Coolangatta
Date/Time
EST
Tmp

°C
App
Tmp
°C
Dew
Point
°C
Rel
Hum
%
Delta-T

°C
Wind Press
QNH
hPa
Press
MSL
hPa
Rain
since
9 am
mm
Dir
 
Spd
km/h
Gust
km/h
Spd
kts
Gust
kts
29/01:00pm 26.3 25.1 17.1 57 5.7 NE 19 24 10 13 1022.3 1022.2 0.0
29/12:30pm 26.3 24.9 16.5 54 6.0 NE 19 24 10 13 1022.5 1022.4 0.0
29/12:00pm 26.1 25.1 16.6 55 5.8 NNE 17 24 9 13 1022.7 1022.6 0.0
29/11:30am 26.5 25.5 16.7 55 6.1 NNE 17 24 9 13 1023.4 1023.3 0.0
29/11:00am 26.6 25.9 17.4 57 5.7 NNE 17 20 9 11 1023.6 1023.5 0.0
29/10:30am 26.5 25.8 17.3 57 5.8 NE 17 20 9 11 1023.9 1023.8 0.0
29/10:00am 26.6 25.9 17.4 57 5.7 NE 17 24 9 13 1024.0 1023.9 0.0
29/09:30am 25.5 24.2 16.9 59 5.3 ENE 19 24 10 13 1023.9 1023.8 0.0
29/09:00am 26.1 25.5 17.5 59 5.4 NE 17 22 9 12 1023.8 1023.7 0.0
29/08:30am 25.4 24.7 17.3 61 5.0 NE 17 20 9 11 1023.5 1023.4 0.0
29/08:00am 22.6 24.5 19.0 80 2.3 W 7 13 4 7 1023.2 1023.1 0.0
29/07:30am 22.0 23.0 18.6 81 2.1 SW 11 17 6 9 1023.0 1022.9 0.0
29/07:00am 21.8 22.9 18.8 83 1.9 WSW 11 13 6 7 1022.4 1022.3 0.0
29/06:30am 21.7 22.3 18.7 83 1.9 WSW 13 17 7 9 1022.1 1022.0 0.0
29/06:00am 21.3 22.7 18.7 85 1.6 W 9 13 5 7 1021.7 1021.6 0.0
29/05:30am 21.6 23.0 18.6 83 1.9 SSE 9 15 5 8 1021.3 1021.2 0.0
29/05:00am 21.6 23.5 18.6 83 1.9 SW 6 9 3 5 1021.0 1020.9 0.0
29/04:30am 21.4 22.2 19.0 86 1.5 WSW 13 19 7 10 1020.7 1020.6 0.0
29/04:00am 21.8 25.1 19.0 84 1.8 CALM 0 6 0 3 1020.4 1020.3 0.0
29/03:30am 21.7 23.7 19.1 85 1.6 SW 7 11 4 6 1020.2 1020.1 0.0
29/03:00am 21.9 24.1 19.1 84 1.8 WSW 6 9 3 5 1020.3 1020.2 0.0
29/02:30am 21.7 23.8 18.9 84 1.8 SW 6 9 3 5 1020.4 1020.3 0.0
29/02:00am 21.8 23.4 19.2 85 1.6 WSW 9 11 5 6 1020.7 1020.6 0.0
29/01:30am 22.1 23.8 19.3 84 1.8 WSW 9 11 5 6 1020.9 1020.8 0.0
29/01:00am 23.0 24.7 18.5 76 2.8 S 7 9 4 5 1021.0 1020.9 0.0
29/12:30am 23.6 25.1 18.0 71 3.5 E 7 13 4 7 1021.1 1021.0 0.0
 
Date/Time
EST
Tmp

°C
App
Tmp
°C
Dew
Point
°C
Rel
Hum
%
Delta-T

°C
Wind Press
QNH
hPa
Press
MSL
hPa
Rain
since
9 am
mm
Dir
 
Spd
km/h
Gust
km/h
Spd
kts
Gust
kts
28/11:30pm 22.7 24.5 18.3 76 2.8 S 6 9 3 5 1021.7 1021.6 0.0
28/11:00pm 23.2 24.1 18.3 74 3.1 ESE 11 13 6 7 1022.0 1021.9 0.0
28/10:30pm 24.1 24.7 17.6 67 4.0 ESE 11 17 6 9 1021.9 1021.8 0.0
28/10:00pm 24.3 24.6 17.8 67 4.1 ENE 13 20 7 11 1021.8 1021.7 0.0
28/09:30pm 24.1 24.4 17.8 68 3.9 E 13 17 7 9 1021.8 1021.7 0.0
28/09:00pm 24.3 24.2 17.8 67 4.1 E 15 20 8 11 1022.0 1021.9 0.0
28/08:30pm 24.3 24.6 17.8 67 4.1 ESE 13 20 7 11 1021.7 1021.6 0.0
28/08:00pm 24.4 25.0 17.6 66 4.2 ESE 11 19 6 10 1021.4 1021.3 0.0
28/07:30pm 24.5 24.7 17.7 66 4.2 E 13 20 7 11 1021.1 1021.0 0.0
28/07:00pm 24.5 24.3 17.5 65 4.3 ESE 15 20 8 11 1020.8 1020.7 0.0
28/06:30pm 24.6 23.9 17.3 64 4.5 ESE 17 22 9 12 1020.4 1020.3 0.0
28/06:00pm 24.6 24.0 17.6 65 4.4 E 17 22 9 12 1020.1 1020.0 0.0
28/05:30pm 24.7 24.3 17.2 63 4.7 ESE 15 20 8 11 1020.0 1019.9 0.0
28/05:00pm 25.0 24.8 17.5 63 4.7 E 15 19 8 10 1020.0 1019.9 0.0
28/04:30pm 25.3 24.5 17.0 60 5.1 E 17 24 9 13 1019.6 1019.5 0.0
28/04:00pm 25.5 24.1 16.6 58 5.5 ESE 19 24 10 13 1019.7 1019.6 0.0
28/03:30pm 26.4 25.0 16.6 55 6.1 E 19 24 10 13 1019.5 1019.4 0.0
28/03:00pm 26.6 25.3 16.8 55 6.1 E 19 26 10 14 1019.4 1019.3 0.0
28/02:30pm 25.9 24.5 16.5 56 5.8 E 19 26 10 14 1019.6 1019.5 0.0
28/02:00pm 26.3 24.9 16.5 54 6.0 E 19 28 10 15 1019.8 1019.7 0.0
28/01:30pm 27.1 25.9 17.0 54 6.3 ESE 19 28 10 15 1019.8 1019.7 0.0
28/01:00pm 26.6 26.1 17.9 59 5.5 E 17 22 9 12 1020.2 1020.1 0.0
28/12:30pm 27.3 26.5 18.0 56 5.9 E 19 26 10 14 1020.3 1020.2 0.0
28/12:00pm 27.1 27.0 19.9 64 4.7 ESE 20 28 11 15 1020.7 1020.6 0.0
28/11:30am 27.4 27.4 20.2 65 4.7 ESE 20 28 11 15 1021.0 1020.9 0.0
28/11:00am 26.9 26.7 19.3 63 4.9 ESE 19 24 10 13 1021.4 1021.3 0.0
28/10:30am 25.9 26.5 19.5 68 4.1 SSE 15 20 8 11 1021.7 1021.6 0.0
28/10:00am 25.4 25.8 19.8 71 3.6 SSE 17 26 9 14 1021.7 1021.6 0.0
28/09:30am 25.3 25.8 19.2 69 3.9 S 15 22 8 12 1021.7 1021.6 0.0
28/09:00am 24.8 25.1 19.6 73 3.3 S 17 20 9 11 1021.6 1021.5 0.0
28/08:30am 24.6 25.2 19.4 73 3.3 S 15 22 8 12 1021.4 1021.3 0.0
28/08:00am 23.7 24.7 19.4 77 2.7 S 13 22 7 12 1021.0 1020.9 0.0
28/07:30am 23.1 25.5 20.1 83 1.9 S 7 9 4 5 1020.7 1020.6 0.0
28/07:00am 22.4 25.3 20.7 90 1.1 S 6 7 3 4 1020.1 1020.0 0.0
28/06:30am 20.9 23.2 19.4 91 1.0 S 6 7 3 4 1019.7 1019.6 0.0
28/06:00am 20.7 22.7 19.2 91 0.9 S 7 9 4 5 1019.4 1019.3 0.0
28/05:30am 20.9 23.2 19.4 91 1.0 S 6 7 3 4 1019.1 1019.0 0.0
28/05:00am 21.0 24.3 19.1 89 1.2 CALM 0 0 0 0 1018.9 1018.8 0.0
28/04:30am 21.1 23.2 19.0 88 1.3 S 6 7 3 4 1018.6 1018.5 0.0
28/04:00am 21.3 23.2 19.0 87 1.4 S 7 9 4 5 1018.3 1018.2 0.0
28/03:30am 21.6 23.7 19.3 87 1.5 S 7 7 4 4 1018.3 1018.2 0.0
28/03:00am 21.7 24.0 19.4 87 1.5 S 6 7 3 4 1018.2 1018.1 0.0
28/02:30am 21.6 23.7 19.3 87 1.5 SSW 7 11 4 6 1018.3 1018.2 0.0
28/02:00am 22.2 25.7 19.6 85 1.7 CALM 0 0 0 0 1018.2 1018.1 0.0
28/01:30am 22.3 24.6 19.5 84 1.8 SSW 6 7 3 4 1018.5 1018.4 0.0
28/01:00am 22.7 25.1 19.7 83 1.9 SSW 6 9 3 5 1018.6 1018.5 0.0
28/12:30am 22.8 25.1 19.8 83 1.9 SSW 7 11 4 6 1018.7 1018.6 0.0
28/12:00am 22.5 24.6 19.3 82 2.0 SSW 7 9 4 5 1018.8 1018.7 0.0
 
Date/Time
EST
Tmp

°C
App
Tmp
°C
Dew
Point
°C
Rel
Hum
%
Delta-T

°C
Wind Press
QNH
hPa
Press
MSL
hPa
Rain
since
9 am
mm
Dir
 
Spd
km/h
Gust
km/h
Spd
kts
Gust
kts
27/11:30pm 22.8 24.5 19.4 81 2.2 SSW 9 11 5 6 1019.0 1018.9 0.0
27/11:00pm 23.0 24.4 19.6 81 2.2 SSW 11 15 6 8 1019.1 1019.0 0.0
27/10:30pm 22.9 25.2 19.5 81 2.2 SSW 6 7 3 4 1019.3 1019.2 0.0
27/10:00pm 23.3 25.6 19.9 81 2.2 SW 7 13 4 7 1019.5 1019.4 0.0
27/09:30pm 23.4 24.9 19.8 80 2.3 SW 11 13 6 7 1019.6 1019.5 0.0
27/09:00pm 22.9 24.7 19.5 81 2.2 SSW 9 17 5 9 1019.5 1019.4 0.0
27/08:30pm 23.3 25.1 19.5 79 2.4 SSW 9 13 5 7 1019.5 1019.4 0.0
27/08:00pm 23.5 24.9 19.6 79 2.5 SSW 11 15 6 8 1019.3 1019.2 0.0
27/07:30pm 23.4 24.4 19.5 79 2.5 SSW 13 17 7 9 1019.0 1018.9 0.0
27/07:00pm 23.6 24.7 19.7 79 2.5 SSW 13 20 7 11 1018.6 1018.5 0.0
27/06:30pm 23.9 25.1 19.8 78 2.6 S 13 17 7 9 1018.3 1018.2 0.0
27/06:00pm 24.0 25.1 19.7 77 2.8 S 13 19 7 10 1018.0 1017.9 0.0
27/05:30pm 24.2 24.5 19.7 76 2.9 S 17 26 9 14 1017.8 1017.7 0.0
27/05:00pm 25.0 24.5 20.0 74 3.2 SSE 22 28 12 15 1017.5 1017.4 0.0
27/04:30pm 25.1 23.4 19.7 72 3.5 SSE 28 35 15 19 1017.2 1017.1 0.0
27/04:00pm 25.9 23.8 19.8 69 3.9 SE 30 41 16 22 1017.0 1016.9 0.0
27/03:30pm 26.1 23.9 19.5 67 4.3 SSE 30 43 16 23 1016.8 1016.7 0.0
27/03:00pm 26.9 24.7 19.5 64 4.8 SSE 30 41 16 22 1016.7 1016.6 0.0
27/02:30pm 26.9 24.8 19.8 65 4.6 SSE 30 41 16 22 1016.7 1016.6 0.0
27/02:00pm 27.6 25.1 20.2 64 4.8 SE 33 43 18 23 1016.9 1016.8 0.0
27/01:30pm 26.7 24.5 19.6 65 4.6 SE 30 41 16 22 1017.1 1017.0 0.0
27/01:00pm 27.5 25.4 19.8 63 5.0 SE 30 39 16 21 1017.3 1017.2 0.0
27/12:30pm 28.3 26.2 20.6 63 5.1 SE 32 41 17 22 1017.6 1017.5 0.0
27/12:00pm 28.1 27.4 21.1 65 4.6 SE 26 33 14 18 1018.1 1018.0 0.0
27/11:30am 28.5 28.7 20.5 62 5.3 SSE 20 33 11 18 1018.4 1018.3 0.0
27/11:00am 28.1 28.3 20.1 62 5.2 SSE 19 28 10 15 1018.8 1018.7 0.0
27/10:30am 28.5 28.7 20.2 60 5.5 SSE 19 26 10 14 1019.0 1018.9 0.0
27/10:00am 27.5 28.4 20.8 67 4.4 SSE 17 26 9 14 1019.0 1018.9 0.0
27/09:30am 27.0 28.0 21.7 73 3.5 SSE 19 26 10 14 1019.0 1018.9 0.0
27/09:00am 27.1 28.8 21.6 72 3.7 S 15 24 8 13 1018.9 1018.8 0.0
27/08:30am 25.7 27.5 21.1 76 3.0 S 13 17 7 9 1018.8 1018.7 0.0
27/08:00am 25.3 27.2 22.0 82 2.2 S 15 20 8 11 1018.6 1018.5 0.0
27/07:30am 24.6 26.9 22.1 86 1.7 S 13 19 7 10 1018.5 1018.4 0.0
27/07:00am 24.1 27.3 22.4 90 1.1 S 9 11 5 6 1018.1 1018.0 0.0
27/06:30am 23.9 27.3 22.0 89 1.3 NNW 7 11 4 6 1017.5 1017.4 0.0
27/06:00am 23.7 26.7 22.0 90 1.1 NNW 9 11 5 6 1017.1 1017.0 0.0
27/05:30am 23.8 27.1 21.9 89 1.3 W 7 9 4 5 1016.8 1016.7 0.0
27/05:00am 24.1 27.1 22.0 88 1.4 NW 9 13 5 7 1016.3 1016.2 0.0
27/04:30am 24.7 27.1 22.2 86 1.7 NNW 13 17 7 9 1016.0 1015.9 0.0
27/04:00am 24.6 26.9 22.1 86 1.7 NNW 13 17 7 9 1015.7 1015.6 0.0
27/03:30am 24.4 26.9 22.5 89 1.3 NNW 13 17 7 9 1015.7 1015.6 0.0
27/03:00am 24.5 27.4 22.4 88 1.4 NW 11 15 6 8 1015.9 1015.8 0.0
27/02:30am 24.6 27.0 22.3 87 1.5 NNW 13 17 7 9 1016.0 1015.9 0.0
27/02:00am 24.8 27.3 22.5 87 1.5 NNW 13 19 7 10 1016.2 1016.1 0.0
27/01:30am 24.9 27.9 22.6 87 1.5 NNW 11 15 6 8 1016.4 1016.3 0.0
27/01:00am 25.2 27.9 22.9 87 1.6 NNW 13 17 7 9 1016.7 1016.6 0.0
27/12:30am 25.4 27.7 22.7 85 1.8 NW 15 20 8 11 1017.1 1017.0 0.0
27/12:00am 25.5 27.3 22.6 84 2.0 NNW 17 20 9 11 1017.1 1017.0 0.0
 
Date/Time
EST
Tmp

°C
App
Tmp
°C
Dew
Point
°C
Rel
Hum
%
Delta-T

°C
Wind Press
QNH
hPa
Press
MSL
hPa
Rain
since
9 am
mm
Dir
 
Spd
km/h
Gust
km/h
Spd
kts
Gust
kts
26/11:30pm 25.4 27.8 22.3 83 2.1 NNW 13 17 7 9 1017.2 1017.1 0.0
26/11:00pm 25.0 27.3 22.1 84 1.9 NNW 13 15 7 8 1017.3 1017.2 0.0
26/10:30pm 25.3 27.8 21.8 81 2.3 NNW 11 17 6 9 1017.4 1017.3 0.0
26/10:00pm 25.7 27.6 22.8 84 2.0 NNW 17 20 9 11 1017.9 1017.8 0.0
26/09:30pm 25.6 27.0 22.9 85 1.8 N 20 26 11 14 1017.6 1017.5 0.0
26/09:00pm 25.7 29.0 22.6 83 2.1 NNW 9 15 5 8 1017.1 1017.0 0.0
26/08:30pm 26.2 27.4 22.5 80 2.5 N 20 26 11 14 1017.8 1017.7 0.0
26/08:00pm 25.9 27.3 22.6 82 2.2 NNW 19 26 10 14 1017.7 1017.6 0.0
26/07:30pm 26.2 26.7 22.7 81 2.4 N 24 32 13 17 1017.5 1017.4 0.0
26/07:00pm 26.2 26.7 22.7 81 2.4 N 24 30 13 16 1017.1 1017.0 0.0
26/06:30pm 26.2 26.7 22.7 81 2.4 N 24 35 13 19 1016.9 1016.8 0.0
26/06:00pm 26.3 26.1 22.8 81 2.4 N 28 35 15 19 1016.2 1016.1 0.0
26/05:30pm 26.3 26.9 22.8 81 2.4 N 24 30 13 16 1015.9 1015.8 0.0
26/05:00pm 26.4 26.1 22.5 79 2.6 N 28 35 15 19 1015.5 1015.4 0.0
26/04:30pm 27.0 26.6 22.4 76 3.1 N 28 39 15 21 1014.8 1014.7 0.0
26/04:00pm 27.1 27.2 22.5 76 3.1 N 26 33 14 18 1014.9 1014.8 0.0
26/03:30pm 27.3 26.9 22.3 74 3.4 N 28 33 15 18 1015.3 1015.2 0.0
26/03:00pm 27.9 27.6 22.6 73 3.6 N 28 33 15 18 1015.3 1015.2 0.0
26/02:30pm 28.9 29.7 23.8 74 3.5 N 26 33 14 18 1015.5 1015.4 0.0
26/02:00pm 28.3 28.5 23.4 75 3.4 N 28 35 15 19 1015.7 1015.6 0.0
26/01:30pm 28.6 28.7 23.3 73 3.6 N 28 33 15 18 1016.0 1015.9 0.0

Latest Capital City Observations: Canberra | Sydney | Melbourne | Brisbane | Adelaide | Perth | Hobart | Darwin

Other Formats:

Comma delimited format used in spreadsheet applications
http://www.bom.gov.au/fwo/IDQ60901/IDQ60901.94592.axf

JavaScript Object Notation format (JSON) in row-major order
http://www.bom.gov.au/fwo/IDQ60901/IDQ60901.94592.json